sensor_id;sensor_type;location;lat;lon;timestamp;P1;durP1;ratioP1;P2;durP2;ratioP2
76896;SDS011;65856;52.178;21.176;2023-04-15T00:00:23;10.40;;;6.40;;
76896;SDS011;65856;52.178;21.176;2023-04-15T00:02:51;9.00;;;6.40;;
76896;SDS011;65856;52.178;21.176;2023-04-15T00:05:19;9.40;;;6.10;;
76896;SDS011;65856;52.178;21.176;2023-04-15T00:07:47;9.80;;;6.80;;
76896;SDS011;65856;52.178;21.176;2023-04-15T00:10:15;9.70;;;5.80;;
76896;SDS011;65856;52.178;21.176;2023-04-15T00:12:43;9.80;;;5.80;;
76896;SDS011;65856;52.178;21.176;2023-04-15T00:15:11;9.20;;;6.00;;
76896;SDS011;65856;52.178;21.176;2023-04-15T00:17:39;9.10;;;5.90;;
76896;SDS011;65856;52.178;21.176;2023-04-15T00:20:08;9.40;;;6.20;;
76896;SDS011;65856;52.178;21.176;2023-04-15T00:22:37;8.90;;;6.30;;
76896;SDS011;65856;52.178;21.176;2023-04-15T00:25:05;8.70;;;6.50;;
76896;SDS011;65856;52.178;21.176;2023-04-15T00:27:34;9.40;;;6.10;;
76896;SDS011;65856;52.178;21.176;2023-04-15T00:30:03;9.40;;;6.40;;
76896;SDS011;65856;52.178;21.176;2023-04-15T00:32:32;10.40;;;6.70;;
76896;SDS011;65856;52.178;21.176;2023-04-15T00:35:00;7.60;;;5.80;;
76896;SDS011;65856;52.178;21.176;2023-04-15T00:37:29;8.50;;;6.30;;
76896;SDS011;65856;52.178;21.176;2023-04-15T00:39:57;8.30;;;5.50;;
76896;SDS011;65856;52.178;21.176;2023-04-15T00:42:25;10.70;;;6.80;;
76896;SDS011;65856;52.178;21.176;2023-04-15T00:44:54;9.50;;;6.60;;
76896;SDS011;65856;52.178;21.176;2023-04-15T00:47:22;9.60;;;6.90;;
76896;SDS011;65856;52.178;21.176;2023-04-15T00:49:51;11.30;;;7.00;;
76896;SDS011;65856;52.178;21.176;2023-04-15T00:52:18;9.90;;;6.30;;
76896;SDS011;65856;52.178;21.176;2023-04-15T00:54:46;9.90;;;6.20;;
76896;SDS011;65856;52.178;21.176;2023-04-15T00:57:14;9.50;;;6.20;;
76896;SDS011;65856;52.178;21.176;2023-04-15T00:59:42;11.00;;;6.80;;
76896;SDS011;65856;52.178;21.176;2023-04-15T01:02:10;10.10;;;6.50;;
76896;SDS011;65856;52.178;21.176;2023-04-15T01:04:38;8.40;;;6.80;;
76896;SDS011;65856;52.178;21.176;2023-04-15T01:07:07;8.60;;;5.80;;
76896;SDS011;65856;52.178;21.176;2023-04-15T01:09:35;8.50;;;6.30;;
76896;SDS011;65856;52.178;21.176;2023-04-15T01:12:04;8.90;;;6.50;;
76896;SDS011;65856;52.178;21.176;2023-04-15T01:14:34;10.50;;;7.00;;
76896;SDS011;65856;52.178;21.176;2023-04-15T01:17:02;9.90;;;6.60;;
76896;SDS011;65856;52.178;21.176;2023-04-15T01:19:30;9.20;;;6.80;;
76896;SDS011;65856;52.178;21.176;2023-04-15T01:21:58;10.60;;;6.60;;
76896;SDS011;65856;52.178;21.176;2023-04-15T01:24:27;9.40;;;6.50;;
76896;SDS011;65856;52.178;21.176;2023-04-15T01:26:57;10.40;;;6.70;;
76896;SDS011;65856;52.178;21.176;2023-04-15T01:29:25;8.50;;;6.30;;
76896;SDS011;65856;52.178;21.176;2023-04-15T01:31:55;10.30;;;7.20;;
76896;SDS011;65856;52.178;21.176;2023-04-15T01:34:23;9.30;;;7.00;;
76896;SDS011;65856;52.178;21.176;2023-04-15T01:36:51;9.10;;;6.40;;
76896;SDS011;65856;52.178;21.176;2023-04-15T01:39:19;9.20;;;6.70;;
76896;SDS011;65856;52.178;21.176;2023-04-15T01:41:47;9.70;;;6.90;;
76896;SDS011;65856;52.178;21.176;2023-04-15T01:44:15;12.20;;;7.00;;
76896;SDS011;65856;52.178;21.176;2023-04-15T01:46:43;10.00;;;6.80;;
76896;SDS011;65856;52.178;21.176;2023-04-15T01:49:10;9.80;;;6.90;;
76896;SDS011;65856;52.178;21.176;2023-04-15T01:51:38;12.20;;;7.70;;
76896;SDS011;65856;52.178;21.176;2023-04-15T01:54:06;10.50;;;6.90;;
76896;SDS011;65856;52.178;21.176;2023-04-15T01:56:34;9.30;;;6.90;;
76896;SDS011;65856;52.178;21.176;2023-04-15T01:59:02;9.90;;;6.90;;
76896;SDS011;65856;52.178;21.176;2023-04-15T02:01:30;10.00;;;7.20;;
76896;SDS011;65856;52.178;21.176;2023-04-15T02:03:58;12.80;;;7.70;;
76896;SDS011;65856;52.178;21.176;2023-04-15T02:06:26;9.90;;;6.70;;
76896;SDS011;65856;52.178;21.176;2023-04-15T02:08:54;11.20;;;8.20;;
76896;SDS011;65856;52.178;21.176;2023-04-15T02:11:22;10.50;;;7.10;;
76896;SDS011;65856;52.178;21.176;2023-04-15T02:13:50;11.40;;;8.00;;
76896;SDS011;65856;52.178;21.176;2023-04-15T02:16:19;10.80;;;7.40;;
76896;SDS011;65856;52.178;21.176;2023-04-15T02:18:48;11.20;;;7.00;;
76896;SDS011;65856;52.178;21.176;2023-04-15T02:21:17;11.40;;;7.40;;
76896;SDS011;65856;52.178;21.176;2023-04-15T02:23:45;12.10;;;7.20;;
76896;SDS011;65856;52.178;21.176;2023-04-15T02:26:14;11.50;;;7.50;;
76896;SDS011;65856;52.178;21.176;2023-04-15T02:28:42;11.00;;;7.90;;
76896;SDS011;65856;52.178;21.176;2023-04-15T02:31:10;10.10;;;7.00;;
76896;SDS011;65856;52.178;21.176;2023-04-15T02:33:38;10.50;;;7.00;;
76896;SDS011;65856;52.178;21.176;2023-04-15T02:36:06;10.30;;;7.10;;
76896;SDS011;65856;52.178;21.176;2023-04-15T02:38:36;10.70;;;7.00;;
76896;SDS011;65856;52.178;21.176;2023-04-15T02:41:05;10.80;;;6.90;;
76896;SDS011;65856;52.178;21.176;2023-04-15T02:43:34;11.60;;;7.90;;
76896;SDS011;65856;52.178;21.176;2023-04-15T02:46:02;13.60;;;8.40;;
76896;SDS011;65856;52.178;21.176;2023-04-15T02:48:30;10.00;;;7.50;;
76896;SDS011;65856;52.178;21.176;2023-04-15T02:51:12;15.20;;;9.10;;
76896;SDS011;65856;52.178;21.176;2023-04-15T02:53:41;11.80;;;8.10;;
76896;SDS011;65856;52.178;21.176;2023-04-15T02:56:09;11.70;;;8.00;;
76896;SDS011;65856;52.178;21.176;2023-04-15T02:58:38;12.30;;;7.60;;
76896;SDS011;65856;52.178;21.176;2023-04-15T03:01:07;10.40;;;7.70;;
76896;SDS011;65856;52.178;21.176;2023-04-15T03:06:39;10.40;;;7.70;;
76896;SDS011;65856;52.178;21.176;2023-04-15T03:09:10;11.70;;;7.90;;
76896;SDS011;65856;52.178;21.176;2023-04-15T03:11:41;11.40;;;8.00;;
76896;SDS011;65856;52.178;21.176;2023-04-15T03:14:12;9.50;;;7.60;;
76896;SDS011;65856;52.178;21.176;2023-04-15T03:16:43;10.80;;;7.50;;
76896;SDS011;65856;52.178;21.176;2023-04-15T03:19:14;10.60;;;6.80;;
76896;SDS011;65856;52.178;21.176;2023-04-15T03:21:45;10.30;;;6.80;;
76896;SDS011;65856;52.178;21.176;2023-04-15T03:24:16;11.30;;;8.10;;
76896;SDS011;65856;52.178;21.176;2023-04-15T03:26:46;13.90;;;8.10;;
76896;SDS011;65856;52.178;21.176;2023-04-15T03:29:17;10.40;;;7.60;;
76896;SDS011;65856;52.178;21.176;2023-04-15T03:31:48;13.10;;;8.00;;
76896;SDS011;65856;52.178;21.176;2023-04-15T03:34:19;10.70;;;7.80;;
76896;SDS011;65856;52.178;21.176;2023-04-15T03:36:49;9.80;;;7.50;;
76896;SDS011;65856;52.178;21.176;2023-04-15T03:39:20;15.00;;;8.10;;
76896;SDS011;65856;52.178;21.176;2023-04-15T03:41:51;9.80;;;7.00;;
76896;SDS011;65856;52.178;21.176;2023-04-15T03:44:22;11.20;;;7.80;;
76896;SDS011;65856;52.178;21.176;2023-04-15T03:51:54;10.70;;;6.90;;
76896;SDS011;65856;52.178;21.176;2023-04-15T03:54:25;9.00;;;7.20;;
76896;SDS011;65856;52.178;21.176;2023-04-15T03:56:55;12.10;;;8.00;;
76896;SDS011;65856;52.178;21.176;2023-04-15T03:59:26;10.60;;;8.00;;
76896;SDS011;65856;52.178;21.176;2023-04-15T04:01:57;10.70;;;7.10;;
76896;SDS011;65856;52.178;21.176;2023-04-15T04:04:28;11.10;;;7.70;;
76896;SDS011;65856;52.178;21.176;2023-04-15T04:06:58;11.70;;;6.90;;
76896;SDS011;65856;52.178;21.176;2023-04-15T04:09:29;10.30;;;7.70;;
76896;SDS011;65856;52.178;21.176;2023-04-15T04:12:00;12.30;;;8.10;;
76896;SDS011;65856;52.178;21.176;2023-04-15T04:14:31;12.20;;;8.00;;
76896;SDS011;65856;52.178;21.176;2023-04-15T04:17:01;11.60;;;7.40;;
76896;SDS011;65856;52.178;21.176;2023-04-15T04:19:32;10.40;;;7.00;;
76896;SDS011;65856;52.178;21.176;2023-04-15T04:22:03;12.60;;;8.00;;
76896;SDS011;65856;52.178;21.176;2023-04-15T04:24:33;10.20;;;7.80;;
76896;SDS011;65856;52.178;21.176;2023-04-15T04:27:04;11.30;;;7.90;;
76896;SDS011;65856;52.178;21.176;2023-04-15T04:29:35;12.40;;;7.30;;
76896;SDS011;65856;52.178;21.176;2023-04-15T04:32:06;11.70;;;7.20;;
76896;SDS011;65856;52.178;21.176;2023-04-15T04:34:36;11.20;;;7.90;;
76896;SDS011;65856;52.178;21.176;2023-04-15T04:37:07;10.20;;;7.60;;
76896;SDS011;65856;52.178;21.176;2023-04-15T04:39:38;9.60;;;7.30;;
76896;SDS011;65856;52.178;21.176;2023-04-15T04:42:09;13.60;;;7.90;;
76896;SDS011;65856;52.178;21.176;2023-04-15T04:44:39;11.90;;;7.50;;
76896;SDS011;65856;52.178;21.176;2023-04-15T04:47:10;11.90;;;8.00;;
76896;SDS011;65856;52.178;21.176;2023-04-15T04:49:41;11.00;;;8.40;;
76896;SDS011;65856;52.178;21.176;2023-04-15T04:52:12;10.70;;;7.20;;
76896;SDS011;65856;52.178;21.176;2023-04-15T04:54:43;9.90;;;7.50;;
76896;SDS011;65856;52.178;21.176;2023-04-15T04:57:14;11.20;;;7.50;;
76896;SDS011;65856;52.178;21.176;2023-04-15T04:59:45;9.10;;;7.00;;
76896;SDS011;65856;52.178;21.176;2023-04-15T05:02:15;12.40;;;7.80;;
76896;SDS011;65856;52.178;21.176;2023-04-15T05:07:33;10.00;;;6.80;;
76896;SDS011;65856;52.178;21.176;2023-04-15T05:10:04;9.70;;;7.20;;
76896;SDS011;65856;52.178;21.176;2023-04-15T05:12:37;9.90;;;6.60;;
76896;SDS011;65856;52.178;21.176;2023-04-15T05:15:10;10.90;;;7.60;;
76896;SDS011;65856;52.178;21.176;2023-04-15T05:17:41;10.00;;;7.00;;
76896;SDS011;65856;52.178;21.176;2023-04-15T05:20:14;8.70;;;6.70;;
76896;SDS011;65856;52.178;21.176;2023-04-15T05:22:45;12.00;;;8.00;;
76896;SDS011;65856;52.178;21.176;2023-04-15T05:25:16;10.40;;;7.20;;
76896;SDS011;65856;52.178;21.176;2023-04-15T05:27:47;9.50;;;6.90;;
76896;SDS011;65856;52.178;21.176;2023-04-15T05:30:18;8.50;;;6.50;;
76896;SDS011;65856;52.178;21.176;2023-04-15T05:32:50;8.30;;;5.70;;
76896;SDS011;65856;52.178;21.176;2023-04-15T05:35:21;10.40;;;6.70;;
76896;SDS011;65856;52.178;21.176;2023-04-15T05:37:52;10.10;;;7.40;;
76896;SDS011;65856;52.178;21.176;2023-04-15T05:40:23;10.20;;;6.60;;
76896;SDS011;65856;52.178;21.176;2023-04-15T05:42:54;9.00;;;6.70;;
76896;SDS011;65856;52.178;21.176;2023-04-15T05:45:25;8.60;;;6.60;;
76896;SDS011;65856;52.178;21.176;2023-04-15T05:47:56;10.00;;;6.50;;
76896;SDS011;65856;52.178;21.176;2023-04-15T05:50:27;9.50;;;6.20;;
76896;SDS011;65856;52.178;21.176;2023-04-15T06:00:08;10.60;;;7.10;;
76896;SDS011;65856;52.178;21.176;2023-04-15T06:02:38;8.80;;;6.00;;
76896;SDS011;65856;52.178;21.176;2023-04-15T06:05:08;9.60;;;6.10;;
76896;SDS011;65856;52.178;21.176;2023-04-15T06:07:37;10.00;;;6.60;;
76896;SDS011;65856;52.178;21.176;2023-04-15T06:10:07;9.80;;;6.30;;
76896;SDS011;65856;52.178;21.176;2023-04-15T06:12:36;8.50;;;6.00;;
76896;SDS011;65856;52.178;21.176;2023-04-15T06:15:06;9.00;;;6.30;;
76896;SDS011;65856;52.178;21.176;2023-04-15T06:17:36;8.80;;;6.70;;
76896;SDS011;65856;52.178;21.176;2023-04-15T06:20:05;8.60;;;6.60;;
76896;SDS011;65856;52.178;21.176;2023-04-15T06:22:36;9.30;;;6.10;;
76896;SDS011;65856;52.178;21.176;2023-04-15T06:25:07;8.40;;;5.70;;
76896;SDS011;65856;52.178;21.176;2023-04-15T06:27:35;11.00;;;6.30;;
76896;SDS011;65856;52.178;21.176;2023-04-15T06:30:05;9.00;;;5.90;;
76896;SDS011;65856;52.178;21.176;2023-04-15T06:32:34;8.70;;;5.90;;
76896;SDS011;65856;52.178;21.176;2023-04-15T06:35:03;9.40;;;6.20;;
76896;SDS011;65856;52.178;21.176;2023-04-15T06:37:31;9.40;;;6.10;;
76896;SDS011;65856;52.178;21.176;2023-04-15T06:39:59;9.40;;;6.00;;
76896;SDS011;65856;52.178;21.176;2023-04-15T06:42:27;8.20;;;5.70;;
76896;SDS011;65856;52.178;21.176;2023-04-15T06:44:55;8.10;;;5.90;;
76896;SDS011;65856;52.178;21.176;2023-04-15T06:47:23;9.40;;;5.30;;
76896;SDS011;65856;52.178;21.176;2023-04-15T06:49:51;8.30;;;6.00;;
76896;SDS011;65856;52.178;21.176;2023-04-15T06:52:19;7.00;;;5.00;;
76896;SDS011;65856;52.178;21.176;2023-04-15T06:54:47;8.40;;;5.30;;
76896;SDS011;65856;52.178;21.176;2023-04-15T06:57:15;7.20;;;5.00;;
76896;SDS011;65856;52.178;21.176;2023-04-15T06:59:43;7.00;;;5.10;;
76896;SDS011;65856;52.178;21.176;2023-04-15T07:02:12;7.60;;;5.50;;
76896;SDS011;65856;52.178;21.176;2023-04-15T07:07:00;7.20;;;5.30;;
76896;SDS011;65856;52.178;21.176;2023-04-15T07:09:28;7.00;;;4.60;;
76896;SDS011;65856;52.178;21.176;2023-04-15T07:11:57;8.90;;;5.10;;
76896;SDS011;65856;52.178;21.176;2023-04-15T07:14:25;6.90;;;4.80;;
76896;SDS011;65856;52.178;21.176;2023-04-15T07:16:55;7.30;;;5.10;;
76896;SDS011;65856;52.178;21.176;2023-04-15T07:19:23;6.00;;;4.80;;
76896;SDS011;65856;52.178;21.176;2023-04-15T07:21:51;6.20;;;4.30;;
76896;SDS011;65856;52.178;21.176;2023-04-15T07:24:18;6.50;;;4.80;;
76896;SDS011;65856;52.178;21.176;2023-04-15T07:26:48;5.50;;;4.00;;
76896;SDS011;65856;52.178;21.176;2023-04-15T07:29:16;6.00;;;4.80;;
76896;SDS011;65856;52.178;21.176;2023-04-15T07:31:44;6.80;;;4.80;;
76896;SDS011;65856;52.178;21.176;2023-04-15T07:34:12;5.30;;;4.20;;
76896;SDS011;65856;52.178;21.176;2023-04-15T07:36:40;5.30;;;4.30;;
76896;SDS011;65856;52.178;21.176;2023-04-15T07:39:08;5.20;;;3.90;;
76896;SDS011;65856;52.178;21.176;2023-04-15T07:41:36;4.90;;;4.10;;
76896;SDS011;65856;52.178;21.176;2023-04-15T07:44:04;5.80;;;4.00;;
76896;SDS011;65856;52.178;21.176;2023-04-15T07:46:32;6.20;;;3.80;;
76896;SDS011;65856;52.178;21.176;2023-04-15T07:49:00;5.30;;;4.00;;
76896;SDS011;65856;52.178;21.176;2023-04-15T07:51:28;6.40;;;3.70;;
76896;SDS011;65856;52.178;21.176;2023-04-15T07:53:56;5.70;;;4.10;;
76896;SDS011;65856;52.178;21.176;2023-04-15T07:56:24;5.60;;;4.30;;
76896;SDS011;65856;52.178;21.176;2023-04-15T07:58:52;6.90;;;4.10;;
76896;SDS011;65856;52.178;21.176;2023-04-15T08:01:20;4.90;;;3.70;;
76896;SDS011;65856;52.178;21.176;2023-04-15T08:03:48;4.30;;;3.20;;
76896;SDS011;65856;52.178;21.176;2023-04-15T08:06:16;6.50;;;3.60;;
76896;SDS011;65856;52.178;21.176;2023-04-15T08:08:44;5.30;;;3.60;;
76896;SDS011;65856;52.178;21.176;2023-04-15T08:11:13;4.90;;;3.70;;
76896;SDS011;65856;52.178;21.176;2023-04-15T08:13:41;5.00;;;3.70;;
76896;SDS011;65856;52.178;21.176;2023-04-15T08:16:20;3.60;;;3.10;;
76896;SDS011;65856;52.178;21.176;2023-04-15T08:18:51;3.70;;;3.00;;
76896;SDS011;65856;52.178;21.176;2023-04-15T08:21:21;3.70;;;3.00;;
76896;SDS011;65856;52.178;21.176;2023-04-15T08:23:50;4.40;;;3.20;;
76896;SDS011;65856;52.178;21.176;2023-04-15T08:26:19;3.80;;;3.10;;
76896;SDS011;65856;52.178;21.176;2023-04-15T08:28:48;4.30;;;3.30;;
76896;SDS011;65856;52.178;21.176;2023-04-15T08:31:17;3.70;;;3.10;;
76896;SDS011;65856;52.178;21.176;2023-04-15T08:33:46;4.60;;;2.90;;
76896;SDS011;65856;52.178;21.176;2023-04-15T08:36:14;3.60;;;2.90;;
76896;SDS011;65856;52.178;21.176;2023-04-15T08:38:43;4.00;;;3.00;;
76896;SDS011;65856;52.178;21.176;2023-04-15T08:41:19;4.00;;;3.00;;
76896;SDS011;65856;52.178;21.176;2023-04-15T08:43:52;4.20;;;2.90;;
76896;SDS011;65856;52.178;21.176;2023-04-15T08:46:23;4.10;;;2.80;;
76896;SDS011;65856;52.178;21.176;2023-04-15T08:48:55;4.40;;;3.00;;
76896;SDS011;65856;52.178;21.176;2023-04-15T08:51:24;3.70;;;2.70;;
76896;SDS011;65856;52.178;21.176;2023-04-15T08:53:52;4.90;;;2.70;;
76896;SDS011;65856;52.178;21.176;2023-04-15T08:56:24;3.80;;;2.80;;
76896;SDS011;65856;52.178;21.176;2023-04-15T08:58:54;4.80;;;2.90;;
76896;SDS011;65856;52.178;21.176;2023-04-15T09:01:22;4.20;;;2.60;;
76896;SDS011;65856;52.178;21.176;2023-04-15T09:03:51;3.50;;;2.50;;
76896;SDS011;65856;52.178;21.176;2023-04-15T09:06:20;2.90;;;2.30;;
76896;SDS011;65856;52.178;21.176;2023-04-15T09:08:49;3.30;;;2.50;;
76896;SDS011;65856;52.178;21.176;2023-04-15T09:11:18;3.70;;;2.40;;
76896;SDS011;65856;52.178;21.176;2023-04-15T09:13:47;5.00;;;2.60;;
76896;SDS011;65856;52.178;21.176;2023-04-15T09:16:15;5.30;;;2.40;;
76896;SDS011;65856;52.178;21.176;2023-04-15T09:18:44;3.70;;;2.60;;
76896;SDS011;65856;52.178;21.176;2023-04-15T09:21:13;3.00;;;2.20;;
76896;SDS011;65856;52.178;21.176;2023-04-15T09:23:54;3.10;;;2.30;;
76896;SDS011;65856;52.178;21.176;2023-04-15T09:26:31;3.00;;;2.40;;
76896;SDS011;65856;52.178;21.176;2023-04-15T09:29:04;2.60;;;2.10;;
76896;SDS011;65856;52.178;21.176;2023-04-15T09:31:33;3.40;;;2.40;;
76896;SDS011;65856;52.178;21.176;2023-04-15T09:34:02;3.20;;;2.40;;
76896;SDS011;65856;52.178;21.176;2023-04-15T09:36:37;3.30;;;2.40;;
76896;SDS011;65856;52.178;21.176;2023-04-15T09:39:19;2.60;;;2.20;;
76896;SDS011;65856;52.178;21.176;2023-04-15T09:41:47;2.70;;;2.40;;
76896;SDS011;65856;52.178;21.176;2023-04-15T09:44:32;3.20;;;2.40;;
76896;SDS011;65856;52.178;21.176;2023-04-15T09:47:00;3.30;;;2.70;;
76896;SDS011;65856;52.178;21.176;2023-04-15T09:49:28;4.10;;;2.40;;
76896;SDS011;65856;52.178;21.176;2023-04-15T09:51:59;4.00;;;2.50;;
76896;SDS011;65856;52.178;21.176;2023-04-15T09:54:34;4.50;;;2.60;;
76896;SDS011;65856;52.178;21.176;2023-04-15T09:57:06;4.00;;;2.40;;
76896;SDS011;65856;52.178;21.176;2023-04-15T09:59:35;5.80;;;3.50;;
76896;SDS011;65856;52.178;21.176;2023-04-15T10:02:04;3.40;;;2.20;;
76896;SDS011;65856;52.178;21.176;2023-04-15T10:04:35;2.90;;;2.30;;
76896;SDS011;65856;52.178;21.176;2023-04-15T10:07:08;4.50;;;2.80;;
76896;SDS011;65856;52.178;21.176;2023-04-15T10:09:37;3.10;;;2.30;;
76896;SDS011;65856;52.178;21.176;2023-04-15T10:12:06;3.30;;;2.40;;
76896;SDS011;65856;52.178;21.176;2023-04-15T10:14:35;2.70;;;2.20;;
76896;SDS011;65856;52.178;21.176;2023-04-15T10:17:07;2.90;;;2.20;;
76896;SDS011;65856;52.178;21.176;2023-04-15T10:19:38;3.20;;;2.60;;
76896;SDS011;65856;52.178;21.176;2023-04-15T10:22:07;4.10;;;2.30;;
76896;SDS011;65856;52.178;21.176;2023-04-15T10:24:36;3.50;;;2.40;;
76896;SDS011;65856;52.178;21.176;2023-04-15T10:27:06;3.50;;;2.10;;
76896;SDS011;65856;52.178;21.176;2023-04-15T10:29:34;5.50;;;2.40;;
76896;SDS011;65856;52.178;21.176;2023-04-15T10:32:03;2.70;;;2.30;;
76896;SDS011;65856;52.178;21.176;2023-04-15T10:34:32;2.80;;;2.20;;
76896;SDS011;65856;52.178;21.176;2023-04-15T10:37:02;2.80;;;2.20;;
76896;SDS011;65856;52.178;21.176;2023-04-15T10:39:43;3.00;;;2.40;;
76896;SDS011;65856;52.178;21.176;2023-04-15T10:42:12;3.60;;;2.50;;
76896;SDS011;65856;52.178;21.176;2023-04-15T10:44:42;3.00;;;2.20;;
76896;SDS011;65856;52.178;21.176;2023-04-15T10:47:12;3.80;;;2.40;;
76896;SDS011;65856;52.178;21.176;2023-04-15T10:49:45;3.80;;;2.40;;
76896;SDS011;65856;52.178;21.176;2023-04-15T10:52:16;2.60;;;2.00;;
76896;SDS011;65856;52.178;21.176;2023-04-15T10:54:48;2.70;;;2.00;;
76896;SDS011;65856;52.178;21.176;2023-04-15T10:57:21;3.40;;;2.60;;
76896;SDS011;65856;52.178;21.176;2023-04-15T11:00:11;3.10;;;2.10;;
76896;SDS011;65856;52.178;21.176;2023-04-15T11:02:43;3.10;;;2.10;;
76896;SDS011;65856;52.178;21.176;2023-04-15T11:05:13;2.80;;;2.10;;
76896;SDS011;65856;52.178;21.176;2023-04-15T11:07:49;2.70;;;2.00;;
76896;SDS011;65856;52.178;21.176;2023-04-15T11:10:52;2.70;;;2.20;;
76896;SDS011;65856;52.178;21.176;2023-04-15T11:13:21;4.10;;;2.70;;
76896;SDS011;65856;52.178;21.176;2023-04-15T11:15:55;3.60;;;2.50;;
76896;SDS011;65856;52.178;21.176;2023-04-15T11:18:31;4.10;;;2.70;;
76896;SDS011;65856;52.178;21.176;2023-04-15T11:21:01;5.80;;;2.70;;
76896;SDS011;65856;52.178;21.176;2023-04-15T11:23:33;4.80;;;2.70;;
76896;SDS011;65856;52.178;21.176;2023-04-15T11:26:05;3.20;;;2.40;;
76896;SDS011;65856;52.178;21.176;2023-04-15T11:28:36;4.10;;;2.50;;
76896;SDS011;65856;52.178;21.176;2023-04-15T11:31:10;3.30;;;2.10;;
76896;SDS011;65856;52.178;21.176;2023-04-15T11:33:45;3.90;;;2.30;;
76896;SDS011;65856;52.178;21.176;2023-04-15T11:36:19;2.70;;;2.20;;
76896;SDS011;65856;52.178;21.176;2023-04-15T11:38:47;4.80;;;2.50;;
76896;SDS011;65856;52.178;21.176;2023-04-15T11:41:21;3.70;;;2.80;;
76896;SDS011;65856;52.178;21.176;2023-04-15T11:43:51;3.70;;;2.60;;
76896;SDS011;65856;52.178;21.176;2023-04-15T11:46:20;3.30;;;2.40;;
76896;SDS011;65856;52.178;21.176;2023-04-15T11:48:54;4.40;;;2.40;;
76896;SDS011;65856;52.178;21.176;2023-04-15T11:51:22;3.40;;;2.50;;
76896;SDS011;65856;52.178;21.176;2023-04-15T11:53:50;4.90;;;2.80;;
76896;SDS011;65856;52.178;21.176;2023-04-15T11:56:19;3.90;;;2.40;;
76896;SDS011;65856;52.178;21.176;2023-04-15T11:58:51;5.00;;;2.90;;
76896;SDS011;65856;52.178;21.176;2023-04-15T12:01:30;4.50;;;2.90;;
76896;SDS011;65856;52.178;21.176;2023-04-15T12:06:22;6.20;;;3.90;;
76896;SDS011;65856;52.178;21.176;2023-04-15T12:08:55;5.40;;;3.30;;
76896;SDS011;65856;52.178;21.176;2023-04-15T12:11:36;5.00;;;3.30;;
76896;SDS011;65856;52.178;21.176;2023-04-15T12:14:08;5.40;;;3.40;;
76896;SDS011;65856;52.178;21.176;2023-04-15T12:16:39;5.90;;;3.20;;
76896;SDS011;65856;52.178;21.176;2023-04-15T12:19:10;3.90;;;2.90;;
76896;SDS011;65856;52.178;21.176;2023-04-15T12:21:43;4.30;;;2.80;;
76896;SDS011;65856;52.178;21.176;2023-04-15T12:26:44;4.20;;;2.90;;
76896;SDS011;65856;52.178;21.176;2023-04-15T12:29:15;3.60;;;2.30;;
76896;SDS011;65856;52.178;21.176;2023-04-15T12:31:50;4.30;;;2.90;;
76896;SDS011;65856;52.178;21.176;2023-04-15T12:34:26;6.20;;;3.10;;
76896;SDS011;65856;52.178;21.176;2023-04-15T12:36:57;4.70;;;2.40;;
76896;SDS011;65856;52.178;21.176;2023-04-15T12:39:27;2.80;;;2.20;;
76896;SDS011;65856;52.178;21.176;2023-04-15T12:41:55;3.70;;;2.40;;
76896;SDS011;65856;52.178;21.176;2023-04-15T12:44:24;4.60;;;2.40;;
76896;SDS011;65856;52.178;21.176;2023-04-15T12:46:52;3.80;;;2.30;;
76896;SDS011;65856;52.178;21.176;2023-04-15T12:49:21;3.10;;;2.10;;
76896;SDS011;65856;52.178;21.176;2023-04-15T12:51:51;3.90;;;2.30;;
76896;SDS011;65856;52.178;21.176;2023-04-15T12:54:20;4.00;;;2.40;;
76896;SDS011;65856;52.178;21.176;2023-04-15T12:56:49;4.30;;;2.30;;
76896;SDS011;65856;52.178;21.176;2023-04-15T12:59:18;2.80;;;2.30;;
76896;SDS011;65856;52.178;21.176;2023-04-15T13:01:47;6.30;;;2.40;;
76896;SDS011;65856;52.178;21.176;2023-04-15T13:04:15;3.30;;;2.10;;
76896;SDS011;65856;52.178;21.176;2023-04-15T13:06:43;2.90;;;2.00;;
76896;SDS011;65856;52.178;21.176;2023-04-15T13:09:11;2.80;;;2.00;;
76896;SDS011;65856;52.178;21.176;2023-04-15T13:11:39;2.70;;;2.10;;
76896;SDS011;65856;52.178;21.176;2023-04-15T13:14:08;5.20;;;2.60;;
76896;SDS011;65856;52.178;21.176;2023-04-15T13:16:38;5.80;;;2.20;;
76896;SDS011;65856;52.178;21.176;2023-04-15T13:19:06;3.10;;;2.20;;
76896;SDS011;65856;52.178;21.176;2023-04-15T13:21:34;3.30;;;2.40;;
76896;SDS011;65856;52.178;21.176;2023-04-15T13:24:02;3.40;;;1.90;;
76896;SDS011;65856;52.178;21.176;2023-04-15T13:26:36;3.20;;;1.90;;
76896;SDS011;65856;52.178;21.176;2023-04-15T13:29:11;5.00;;;1.70;;
76896;SDS011;65856;52.178;21.176;2023-04-15T13:31:39;2.70;;;1.80;;
76896;SDS011;65856;52.178;21.176;2023-04-15T13:34:07;2.80;;;1.90;;
76896;SDS011;65856;52.178;21.176;2023-04-15T13:36:35;2.70;;;1.90;;
76896;SDS011;65856;52.178;21.176;2023-04-15T13:39:03;2.80;;;1.90;;
76896;SDS011;65856;52.178;21.176;2023-04-15T13:41:31;3.00;;;2.10;;
76896;SDS011;65856;52.178;21.176;2023-04-15T13:43:59;4.40;;;1.70;;
76896;SDS011;65856;52.178;21.176;2023-04-15T13:46:27;3.60;;;1.90;;
76896;SDS011;65856;52.178;21.176;2023-04-15T13:48:55;2.60;;;1.90;;
76896;SDS011;65856;52.178;21.176;2023-04-15T13:51:23;3.90;;;1.70;;
76896;SDS011;65856;52.178;21.176;2023-04-15T13:53:52;2.60;;;1.60;;
76896;SDS011;65856;52.178;21.176;2023-04-15T13:56:20;3.70;;;1.80;;
76896;SDS011;65856;52.178;21.176;2023-04-15T13:58:48;4.50;;;2.10;;
76896;SDS011;65856;52.178;21.176;2023-04-15T14:01:18;3.60;;;2.70;;
76896;SDS011;65856;52.178;21.176;2023-04-15T14:03:46;3.60;;;2.10;;
76896;SDS011;65856;52.178;21.176;2023-04-15T14:06:14;3.30;;;2.00;;
76896;SDS011;65856;52.178;21.176;2023-04-15T14:08:42;6.00;;;2.80;;
76896;SDS011;65856;52.178;21.176;2023-04-15T14:11:10;3.70;;;2.20;;
76896;SDS011;65856;52.178;21.176;2023-04-15T14:13:38;2.80;;;1.90;;
76896;SDS011;65856;52.178;21.176;2023-04-15T14:16:06;2.70;;;1.80;;
76896;SDS011;65856;52.178;21.176;2023-04-15T14:18:34;2.40;;;1.50;;
76896;SDS011;65856;52.178;21.176;2023-04-15T14:21:03;3.30;;;1.70;;
76896;SDS011;65856;52.178;21.176;2023-04-15T14:23:32;2.60;;;1.90;;
76896;SDS011;65856;52.178;21.176;2023-04-15T14:26:00;2.10;;;1.70;;
76896;SDS011;65856;52.178;21.176;2023-04-15T14:28:27;3.50;;;1.70;;
76896;SDS011;65856;52.178;21.176;2023-04-15T14:30:55;2.20;;;1.50;;
76896;SDS011;65856;52.178;21.176;2023-04-15T14:33:23;2.80;;;1.70;;
76896;SDS011;65856;52.178;21.176;2023-04-15T14:35:51;2.70;;;1.80;;
76896;SDS011;65856;52.178;21.176;2023-04-15T14:38:19;5.00;;;2.10;;
76896;SDS011;65856;52.178;21.176;2023-04-15T14:40:48;3.30;;;1.90;;
76896;SDS011;65856;52.178;21.176;2023-04-15T14:43:16;3.30;;;2.10;;
76896;SDS011;65856;52.178;21.176;2023-04-15T14:45:44;3.30;;;2.20;;
76896;SDS011;65856;52.178;21.176;2023-04-15T14:48:12;3.50;;;2.00;;
76896;SDS011;65856;52.178;21.176;2023-04-15T14:50:40;2.60;;;1.70;;
76896;SDS011;65856;52.178;21.176;2023-04-15T14:53:08;3.70;;;1.90;;
76896;SDS011;65856;52.178;21.176;2023-04-15T14:55:36;4.60;;;2.30;;
76896;SDS011;65856;52.178;21.176;2023-04-15T14:58:05;3.60;;;1.60;;
76896;SDS011;65856;52.178;21.176;2023-04-15T15:00:34;2.90;;;1.60;;
76896;SDS011;65856;52.178;21.176;2023-04-15T15:03:07;3.00;;;1.60;;
76896;SDS011;65856;52.178;21.176;2023-04-15T15:05:38;2.00;;;1.30;;
76896;SDS011;65856;52.178;21.176;2023-04-15T15:08:07;2.10;;;1.50;;
76896;SDS011;65856;52.178;21.176;2023-04-15T15:10:36;2.90;;;1.50;;